sensor_id;sensor_type;location;lat;lon;timestamp;temperature;humidity
84340;SHT30;74521;45.618;5.212;2023-12-07T00:01:52;20.44;46.55
84340;SHT30;74521;45.618;5.212;2023-12-07T00:04:20;20.43;46.54
84340;SHT30;74521;45.618;5.212;2023-12-07T00:06:47;20.44;46.54
84340;SHT30;74521;45.618;5.212;2023-12-07T00:09:14;20.43;46.54
84340;SHT30;74521;45.618;5.212;2023-12-07T00:11:40;20.43;46.59
84340;SHT30;74521;45.618;5.212;2023-12-07T00:14:06;20.43;46.51
84340;SHT30;74521;45.618;5.212;2023-12-07T00:16:33;20.41;46.44
84340;SHT30;74521;45.618;5.212;2023-12-07T00:18:59;20.40;46.53
84340;SHT30;74521;45.618;5.212;2023-12-07T00:21:27;20.41;46.61
84340;SHT30;74521;45.618;5.212;2023-12-07T00:23:54;20.43;46.66
84340;SHT30;74521;45.618;5.212;2023-12-07T00:26:21;20.43;46.76
84340;SHT30;74521;45.618;5.212;2023-12-07T00:28:47;20.44;46.67
84340;SHT30;74521;45.618;5.212;2023-12-07T00:31:14;20.43;46.67
84340;SHT30;74521;45.618;5.212;2023-12-07T00:33:40;20.45;46.64
84340;SHT30;74521;45.618;5.212;2023-12-07T00:36:08;20.45;46.63
84340;SHT30;74521;45.618;5.212;2023-12-07T00:38:36;20.47;46.62
84340;SHT30;74521;45.618;5.212;2023-12-07T00:41:03;20.45;46.61
84340;SHT30;74521;45.618;5.212;2023-12-07T00:43:29;20.45;46.63
84340;SHT30;74521;45.618;5.212;2023-12-07T00:45:56;20.45;46.67
84340;SHT30;74521;45.618;5.212;2023-12-07T00:48:23;20.47;46.68
84340;SHT30;74521;45.618;5.212;2023-12-07T00:50:50;20.44;46.62
84340;SHT30;74521;45.618;5.212;2023-12-07T00:53:16;20.44;46.60
84340;SHT30;74521;45.618;5.212;2023-12-07T00:55:44;20.47;46.56
84340;SHT30;74521;45.618;5.212;2023-12-07T00:58:11;20.44;46.54
84340;SHT30;74521;45.618;5.212;2023-12-07T01:00:37;20.47;46.69
84340;SHT30;74521;45.618;5.212;2023-12-07T01:03:04;20.44;46.70
84340;SHT30;74521;45.618;5.212;2023-12-07T01:05:31;20.48;46.79
84340;SHT30;74521;45.618;5.212;2023-12-07T01:07:57;20.47;46.74
84340;SHT30;74521;45.618;5.212;2023-12-07T01:10:25;20.48;46.82
84340;SHT30;74521;45.618;5.212;2023-12-07T01:12:53;20.48;46.74
84340;SHT30;74521;45.618;5.212;2023-12-07T01:15:19;20.47;46.78
84340;SHT30;74521;45.618;5.212;2023-12-07T01:17:46;20.48;46.68
84340;SHT30;74521;45.618;5.212;2023-12-07T01:20:12;20.48;46.69
84340;SHT30;74521;45.618;5.212;2023-12-07T01:22:39;20.48;46.70
84340;SHT30;74521;45.618;5.212;2023-12-07T01:25:06;20.48;46.70
84340;SHT30;74521;45.618;5.212;2023-12-07T01:27:33;20.48;46.65
84340;SHT30;74521;45.618;5.212;2023-12-07T01:30:01;20.47;46.75
84340;SHT30;74521;45.618;5.212;2023-12-07T01:32:29;20.44;46.69
84340;SHT30;74521;45.618;5.212;2023-12-07T01:34:55;20.45;46.66
84340;SHT30;74521;45.618;5.212;2023-12-07T01:37:22;20.43;46.65
84340;SHT30;74521;45.618;5.212;2023-12-07T01:39:49;20.41;46.74
84340;SHT30;74521;45.618;5.212;2023-12-07T01:42:15;20.47;46.74
84340;SHT30;74521;45.618;5.212;2023-12-07T01:44:42;20.44;46.80
84340;SHT30;74521;45.618;5.212;2023-12-07T01:47:10;20.45;46.82
84340;SHT30;74521;45.618;5.212;2023-12-07T01:49:37;20.44;46.79
84340;SHT30;74521;45.618;5.212;2023-12-07T01:52:05;20.47;46.77
84340;SHT30;74521;45.618;5.212;2023-12-07T01:54:32;20.44;46.74
84340;SHT30;74521;45.618;5.212;2023-12-07T01:56:59;20.44;46.77
84340;SHT30;74521;45.618;5.212;2023-12-07T01:59:26;20.44;46.73
84340;SHT30;74521;45.618;5.212;2023-12-07T02:01:53;20.45;46.77
84340;SHT30;74521;45.618;5.212;2023-12-07T02:04:21;20.44;46.74
84340;SHT30;74521;45.618;5.212;2023-12-07T02:06:48;20.44;46.77
84340;SHT30;74521;45.618;5.212;2023-12-07T02:09:15;20.43;46.70
84340;SHT30;74521;45.618;5.212;2023-12-07T02:11:41;20.41;46.76
84340;SHT30;74521;45.618;5.212;2023-12-07T02:14:08;20.43;46.67
84340;SHT30;74521;45.618;5.212;2023-12-07T02:16:40;20.44;46.87
84340;SHT30;74521;45.618;5.212;2023-12-07T02:19:20;20.44;46.90
84340;SHT30;74521;45.618;5.212;2023-12-07T02:21:56;20.48;47.05
84340;SHT30;74521;45.618;5.212;2023-12-07T02:24:26;20.48;46.92
84340;SHT30;74521;45.618;5.212;2023-12-07T02:26:55;20.47;47.01
84340;SHT30;74521;45.618;5.212;2023-12-07T02:29:21;20.47;46.89
84340;SHT30;74521;45.618;5.212;2023-12-07T02:31:48;20.47;46.83
84340;SHT30;74521;45.618;5.212;2023-12-07T02:34:15;20.47;46.86
84340;SHT30;74521;45.618;5.212;2023-12-07T02:36:43;20.50;46.80
84340;SHT30;74521;45.618;5.212;2023-12-07T02:39:11;20.48;46.83
84340;SHT30;74521;45.618;5.212;2023-12-07T02:41:39;20.48;46.88
84340;SHT30;74521;45.618;5.212;2023-12-07T02:44:08;20.48;46.93
84340;SHT30;74521;45.618;5.212;2023-12-07T02:46:35;20.45;46.85
84340;SHT30;74521;45.618;5.212;2023-12-07T02:49:02;20.47;46.83
84340;SHT30;74521;45.618;5.212;2023-12-07T02:51:29;20.45;46.79
84340;SHT30;74521;45.618;5.212;2023-12-07T02:53:55;20.45;46.82
84340;SHT30;74521;45.618;5.212;2023-12-07T02:56:22;20.43;46.91
84340;SHT30;74521;45.618;5.212;2023-12-07T02:58:48;20.45;46.96
84340;SHT30;74521;45.618;5.212;2023-12-07T03:01:16;20.47;46.92
84340;SHT30;74521;45.618;5.212;2023-12-07T03:03:43;20.48;47.03
84340;SHT30;74521;45.618;5.212;2023-12-07T03:06:10;20.48;46.94
84340;SHT30;74521;45.618;5.212;2023-12-07T03:08:36;20.47;46.91
84340;SHT30;74521;45.618;5.212;2023-12-07T03:11:05;20.48;46.90
84340;SHT30;74521;45.618;5.212;2023-12-07T03:13:31;20.47;46.90
84340;SHT30;74521;45.618;5.212;2023-12-07T03:15:58;20.47;46.89
84340;SHT30;74521;45.618;5.212;2023-12-07T03:18:26;20.47;46.93
84340;SHT30;74521;45.618;5.212;2023-12-07T03:20:52;20.48;46.91
84340;SHT30;74521;45.618;5.212;2023-12-07T03:23:19;20.45;46.94
84340;SHT30;74521;45.618;5.212;2023-12-07T03:25:45;20.43;46.91
84340;SHT30;74521;45.618;5.212;2023-12-07T03:28:12;20.44;46.94
84340;SHT30;74521;45.618;5.212;2023-12-07T03:30:39;20.43;46.85
84340;SHT30;74521;45.618;5.212;2023-12-07T03:33:05;20.43;46.94
84340;SHT30;74521;45.618;5.212;2023-12-07T03:35:33;20.40;46.93
84340;SHT30;74521;45.618;5.212;2023-12-07T03:38:00;20.43;47.06
84340;SHT30;74521;45.618;5.212;2023-12-07T03:40:27;20.44;47.05
84340;SHT30;74521;45.618;5.212;2023-12-07T03:42:53;20.44;47.05
84340;SHT30;74521;45.618;5.212;2023-12-07T03:45:20;20.47;47.00
84340;SHT30;74521;45.618;5.212;2023-12-07T03:47:47;20.44;46.96
84340;SHT30;74521;45.618;5.212;2023-12-07T03:50:13;20.48;46.93
84340;SHT30;74521;45.618;5.212;2023-12-07T03:52:41;20.45;46.94
84340;SHT30;74521;45.618;5.212;2023-12-07T03:55:08;20.45;46.99
84340;SHT30;74521;45.618;5.212;2023-12-07T03:57:36;20.47;47.04
84340;SHT30;74521;45.618;5.212;2023-12-07T04:00:03;20.47;47.07
84340;SHT30;74521;45.618;5.212;2023-12-07T04:02:32;20.45;46.94
84340;SHT30;74521;45.618;5.212;2023-12-07T04:04:59;20.44;46.89
84340;SHT30;74521;45.618;5.212;2023-12-07T04:07:27;20.43;47.03
84340;SHT30;74521;45.618;5.212;2023-12-07T04:09:55;20.43;46.93
84340;SHT30;74521;45.618;5.212;2023-12-07T04:12:22;20.43;47.09
84340;SHT30;74521;45.618;5.212;2023-12-07T04:14:49;20.44;47.03
84340;SHT30;74521;45.618;5.212;2023-12-07T04:17:16;20.47;47.14
84340;SHT30;74521;45.618;5.212;2023-12-07T04:19:43;20.44;47.18
84340;SHT30;74521;45.618;5.212;2023-12-07T04:22:10;20.47;47.13
84340;SHT30;74521;45.618;5.212;2023-12-07T04:24:37;20.48;47.12
84340;SHT30;74521;45.618;5.212;2023-12-07T04:27:05;20.47;47.07
84340;SHT30;74521;45.618;5.212;2023-12-07T04:29:31;20.45;47.02
84340;SHT30;74521;45.618;5.212;2023-12-07T04:31:58;20.48;47.04
84340;SHT30;74521;45.618;5.212;2023-12-07T04:34:24;20.48;47.03
84340;SHT30;74521;45.618;5.212;2023-12-07T04:36:51;20.47;46.99
84340;SHT30;74521;45.618;5.212;2023-12-07T04:39:18;20.45;47.04
84340;SHT30;74521;45.618;5.212;2023-12-07T04:41:44;20.44;47.03
84340;SHT30;74521;45.618;5.212;2023-12-07T04:44:12;20.45;46.95
84340;SHT30;74521;45.618;5.212;2023-12-07T04:46:39;20.41;46.91
84340;SHT30;74521;45.618;5.212;2023-12-07T04:49:05;20.43;46.91
84340;SHT30;74521;45.618;5.212;2023-12-07T04:51:32;20.43;47.03
84340;SHT30;74521;45.618;5.212;2023-12-07T04:53:59;20.44;47.01
84340;SHT30;74521;45.618;5.212;2023-12-07T04:56:25;20.44;47.00
84340;SHT30;74521;45.618;5.212;2023-12-07T04:58:52;20.41;47.01
84340;SHT30;74521;45.618;5.212;2023-12-07T05:01:20;20.47;47.02
84340;SHT30;74521;45.618;5.212;2023-12-07T05:03:46;20.44;47.01
84340;SHT30;74521;45.618;5.212;2023-12-07T05:06:13;20.43;47.00
84340;SHT30;74521;45.618;5.212;2023-12-07T05:08:40;20.44;47.01
84340;SHT30;74521;45.618;5.212;2023-12-07T05:11:08;20.41;46.89
84340;SHT30;74521;45.618;5.212;2023-12-07T05:13:35;20.44;46.92
84340;SHT30;74521;45.618;5.212;2023-12-07T05:16:02;20.40;46.92
84340;SHT30;74521;45.618;5.212;2023-12-07T05:18:30;20.40;46.87
84340;SHT30;74521;45.618;5.212;2023-12-07T05:20:57;20.40;46.85
84340;SHT30;74521;45.618;5.212;2023-12-07T05:23:24;20.39;46.79
84340;SHT30;74521;45.618;5.212;2023-12-07T05:25:50;20.37;46.72
84340;SHT30;74521;45.618;5.212;2023-12-07T05:28:17;20.34;46.78
84340;SHT30;74521;45.618;5.212;2023-12-07T05:30:44;20.36;46.79
84340;SHT30;74521;45.618;5.212;2023-12-07T05:33:11;20.36;46.78
84340;SHT30;74521;45.618;5.212;2023-12-07T05:35:39;20.37;46.79
84340;SHT30;74521;45.618;5.212;2023-12-07T05:38:06;20.34;46.79
84340;SHT30;74521;45.618;5.212;2023-12-07T05:40:32;20.36;46.78
84340;SHT30;74521;45.618;5.212;2023-12-07T05:42:59;20.36;46.81
84340;SHT30;74521;45.618;5.212;2023-12-07T05:45:25;20.36;46.77
84340;SHT30;74521;45.618;5.212;2023-12-07T05:47:52;20.37;46.73
84340;SHT30;74521;45.618;5.212;2023-12-07T05:50:19;20.36;46.70
84340;SHT30;74521;45.618;5.212;2023-12-07T05:52:47;20.34;46.73
84340;SHT30;74521;45.618;5.212;2023-12-07T05:55:14;20.36;46.72
84340;SHT30;74521;45.618;5.212;2023-12-07T05:57:40;20.37;46.72
84340;SHT30;74521;45.618;5.212;2023-12-07T06:00:08;20.36;46.70
84340;SHT30;74521;45.618;5.212;2023-12-07T06:02:36;20.36;46.67
84340;SHT30;74521;45.618;5.212;2023-12-07T06:05:03;20.32;46.64
84340;SHT30;74521;45.618;5.212;2023-12-07T06:07:30;20.30;46.70
84340;SHT30;74521;45.618;5.212;2023-12-07T06:09:58;20.33;46.69
84340;SHT30;74521;45.618;5.212;2023-12-07T06:12:25;20.32;46.68
84340;SHT30;74521;45.618;5.212;2023-12-07T06:14:52;20.33;46.69
84340;SHT30;74521;45.618;5.212;2023-12-07T06:17:20;20.34;46.71
84340;SHT30;74521;45.618;5.212;2023-12-07T06:19:47;20.32;46.69
84340;SHT30;74521;45.618;5.212;2023-12-07T06:22:13;20.32;46.73
84340;SHT30;74521;45.618;5.212;2023-12-07T06:24:40;20.32;46.67
84340;SHT30;74521;45.618;5.212;2023-12-07T06:27:08;20.33;46.65
84340;SHT30;74521;45.618;5.212;2023-12-07T06:29:35;20.33;46.67
84340;SHT30;74521;45.618;5.212;2023-12-07T06:32:02;20.33;46.67
84340;SHT30;74521;45.618;5.212;2023-12-07T06:34:29;20.30;46.61
84340;SHT30;74521;45.618;5.212;2023-12-07T06:36:55;20.29;46.61
84340;SHT30;74521;45.618;5.212;2023-12-07T06:39:22;20.29;46.57
84340;SHT30;74521;45.618;5.212;2023-12-07T06:41:49;20.29;46.53
84340;SHT30;74521;45.618;5.212;2023-12-07T06:44:17;20.29;46.53
84340;SHT30;74521;45.618;5.212;2023-12-07T06:46:43;20.27;46.60
84340;SHT30;74521;45.618;5.212;2023-12-07T06:49:10;20.27;46.61
84340;SHT30;74521;45.618;5.212;2023-12-07T06:51:38;20.29;46.60
84340;SHT30;74521;45.618;5.212;2023-12-07T06:54:04;20.27;46.63
84340;SHT30;74521;45.618;5.212;2023-12-07T06:56:31;20.30;46.60
84340;SHT30;74521;45.618;5.212;2023-12-07T06:58:57;20.30;46.61
84340;SHT30;74521;45.618;5.212;2023-12-07T07:01:25;20.29;46.58
84340;SHT30;74521;45.618;5.212;2023-12-07T07:03:52;20.30;46.56
84340;SHT30;74521;45.618;5.212;2023-12-07T07:06:19;20.29;46.53
84340;SHT30;74521;45.618;5.212;2023-12-07T07:08:46;20.27;46.55
84340;SHT30;74521;45.618;5.212;2023-12-07T07:11:14;20.26;46.57
84340;SHT30;74521;45.618;5.212;2023-12-07T07:13:41;20.29;46.54
84340;SHT30;74521;45.618;5.212;2023-12-07T07:16:08;20.27;46.53
84340;SHT30;74521;45.618;5.212;2023-12-07T07:18:38;20.25;46.58
84340;SHT30;74521;45.618;5.212;2023-12-07T07:21:05;20.26;46.55
84340;SHT30;74521;45.618;5.212;2023-12-07T07:23:34;20.25;46.59
84340;SHT30;74521;45.618;5.212;2023-12-07T07:26:01;20.27;46.59
84340;SHT30;74521;45.618;5.212;2023-12-07T07:28:28;20.26;46.58
84340;SHT30;74521;45.618;5.212;2023-12-07T07:30:55;20.27;46.56
84340;SHT30;74521;45.618;5.212;2023-12-07T07:33:21;20.27;46.57
84340;SHT30;74521;45.618;5.212;2023-12-07T07:35:50;20.29;46.55
84340;SHT30;74521;45.618;5.212;2023-12-07T07:38:17;20.29;46.57
84340;SHT30;74521;45.618;5.212;2023-12-07T07:40:44;20.29;46.57
84340;SHT30;74521;45.618;5.212;2023-12-07T07:43:12;20.32;46.51
84340;SHT30;74521;45.618;5.212;2023-12-07T07:45:39;20.29;46.56
84340;SHT30;74521;45.618;5.212;2023-12-07T07:48:06;20.29;46.57
84340;SHT30;74521;45.618;5.212;2023-12-07T07:50:33;20.30;46.55
84340;SHT30;74521;45.618;5.212;2023-12-07T07:53:03;20.29;46.56
84340;SHT30;74521;45.618;5.212;2023-12-07T07:55:30;20.27;46.52
84340;SHT30;74521;45.618;5.212;2023-12-07T07:57:57;20.32;46.88
84340;SHT30;74521;45.618;5.212;2023-12-07T08:00:24;20.33;46.80
84340;SHT30;74521;45.618;5.212;2023-12-07T08:02:51;20.34;46.83
84340;SHT30;74521;45.618;5.212;2023-12-07T08:05:18;20.39;46.87
84340;SHT30;74521;45.618;5.212;2023-12-07T08:07:45;20.43;46.83
84340;SHT30;74521;45.618;5.212;2023-12-07T08:10:14;20.43;46.81
84340;SHT30;74521;45.618;5.212;2023-12-07T08:12:41;20.45;46.67
84340;SHT30;74521;45.618;5.212;2023-12-07T08:15:09;20.45;46.75
84340;SHT30;74521;45.618;5.212;2023-12-07T08:17:36;20.47;46.69
84340;SHT30;74521;45.618;5.212;2023-12-07T08:20:04;20.45;46.67
84340;SHT30;74521;45.618;5.212;2023-12-07T08:22:32;20.44;46.64
84340;SHT30;74521;45.618;5.212;2023-12-07T08:24:59;20.44;46.58
84340;SHT30;74521;45.618;5.212;2023-12-07T08:27:27;20.44;46.63
84340;SHT30;74521;45.618;5.212;2023-12-07T08:29:54;20.44;46.64
84340;SHT30;74521;45.618;5.212;2023-12-07T08:32:21;20.43;46.63
84340;SHT30;74521;45.618;5.212;2023-12-07T08:34:51;20.43;46.62
84340;SHT30;74521;45.618;5.212;2023-12-07T08:37:18;20.41;46.77
84340;SHT30;74521;45.618;5.212;2023-12-07T08:39:44;20.41;46.73
84340;SHT30;74521;45.618;5.212;2023-12-07T08:42:11;20.44;46.68
84340;SHT30;74521;45.618;5.212;2023-12-07T08:44:39;20.48;46.64
84340;SHT30;74521;45.618;5.212;2023-12-07T08:47:06;20.47;46.67
84340;SHT30;74521;45.618;5.212;2023-12-07T08:49:33;20.48;46.69
84340;SHT30;74521;45.618;5.212;2023-12-07T08:51:59;20.51;46.72
84340;SHT30;74521;45.618;5.212;2023-12-07T08:54:26;20.51;46.67
84340;SHT30;74521;45.618;5.212;2023-12-07T08:56:53;20.47;46.68
84340;SHT30;74521;45.618;5.212;2023-12-07T08:59:19;20.47;46.68
84340;SHT30;74521;45.618;5.212;2023-12-07T09:01:47;20.44;46.72
84340;SHT30;74521;45.618;5.212;2023-12-07T09:04:14;20.47;46.73
84340;SHT30;74521;45.618;5.212;2023-12-07T09:06:40;20.47;46.69
84340;SHT30;74521;45.618;5.212;2023-12-07T09:09:07;20.48;46.67
84340;SHT30;74521;45.618;5.212;2023-12-07T09:11:34;20.47;46.68
84340;SHT30;74521;45.618;5.212;2023-12-07T09:14:00;20.45;46.65
84340;SHT30;74521;45.618;5.212;2023-12-07T09:16:27;20.45;46.64
84340;SHT30;74521;45.618;5.212;2023-12-07T09:18:55;20.45;46.64
84340;SHT30;74521;45.618;5.212;2023-12-07T09:21:21;20.50;46.67
84340;SHT30;74521;45.618;5.212;2023-12-07T09:23:48;20.45;46.70
84340;SHT30;74521;45.618;5.212;2023-12-07T09:26:15;20.51;46.68
84340;SHT30;74521;45.618;5.212;2023-12-07T09:28:41;20.51;46.70
84340;SHT30;74521;45.618;5.212;2023-12-07T09:31:08;20.53;46.68
84340;SHT30;74521;45.618;5.212;2023-12-07T09:33:35;20.53;46.63
84340;SHT30;74521;45.618;5.212;2023-12-07T09:36:03;20.53;46.60
84340;SHT30;74521;45.618;5.212;2023-12-07T09:38:35;20.50;44.60
84340;SHT30;74521;45.618;5.212;2023-12-07T09:41:02;20.45;42.72
84340;SHT30;74521;45.618;5.212;2023-12-07T09:43:29;20.39;41.80
84340;SHT30;74521;45.618;5.212;2023-12-07T09:45:57;20.32;41.08
84340;SHT30;74521;45.618;5.212;2023-12-07T09:48:24;20.25;40.72
84340;SHT30;74521;45.618;5.212;2023-12-07T09:50:52;20.17;41.08
84340;SHT30;74521;45.618;5.212;2023-12-07T09:53:20;20.10;41.14
84340;SHT30;74521;45.618;5.212;2023-12-07T09:55:47;20.04;40.78
84340;SHT30;74521;45.618;5.212;2023-12-07T09:58:14;19.98;40.34
84340;SHT30;74521;45.618;5.212;2023-12-07T10:00:40;19.90;40.43
84340;SHT30;74521;45.618;5.212;2023-12-07T10:03:08;19.83;39.94
84340;SHT30;74521;45.618;5.212;2023-12-07T10:05:53;19.75;39.53
84340;SHT30;74521;45.618;5.212;2023-12-07T10:08:27;19.67;39.48
84340;SHT30;74521;45.618;5.212;2023-12-07T10:11:02;19.57;39.34
84340;SHT30;74521;45.618;5.212;2023-12-07T10:13:29;19.51;39.27
84340;SHT30;74521;45.618;5.212;2023-12-07T10:16:06;19.47;39.26
84340;SHT30;74521;45.618;5.212;2023-12-07T10:18:34;19.37;39.31
84340;SHT30;74521;45.618;5.212;2023-12-07T10:21:01;19.30;39.64
84340;SHT30;74521;45.618;5.212;2023-12-07T10:23:29;19.26;39.79
84340;SHT30;74521;45.618;5.212;2023-12-07T10:25:58;19.17;39.88
84340;SHT30;74521;45.618;5.212;2023-12-07T10:28:25;19.16;39.85
84340;SHT30;74521;45.618;5.212;2023-12-07T10:30:51;19.10;39.87
84340;SHT30;74521;45.618;5.212;2023-12-07T10:33:19;19.04;39.90
84340;SHT30;74521;45.618;5.212;2023-12-07T10:35:46;19.02;39.86
84340;SHT30;74521;45.618;5.212;2023-12-07T10:38:15;18.95;39.85
84340;SHT30;74521;45.618;5.212;2023-12-07T10:40:46;18.91;39.89
84340;SHT30;74521;45.618;5.212;2023-12-07T10:43:13;18.88;39.77
84340;SHT30;74521;45.618;5.212;2023-12-07T10:45:43;18.83;39.93
84340;SHT30;74521;45.618;5.212;2023-12-07T10:48:10;18.77;39.89
84340;SHT30;74521;45.618;5.212;2023-12-07T10:50:40;18.73;39.99
84340;SHT30;74521;45.618;5.212;2023-12-07T10:53:09;18.68;40.31
84340;SHT30;74521;45.618;5.212;2023-12-07T10:55:41;18.66;40.59
84340;SHT30;74521;45.618;5.212;2023-12-07T10:58:13;18.65;40.51
84340;SHT30;74521;45.618;5.212;2023-12-07T11:00:42;18.62;40.51
84340;SHT30;74521;45.618;5.212;2023-12-07T11:03:14;18.56;40.58
84340;SHT30;74521;45.618;5.212;2023-12-07T11:05:42;18.55;40.47
84340;SHT30;74521;45.618;5.212;2023-12-07T11:08:11;18.51;40.57
84340;SHT30;74521;45.618;5.212;2023-12-07T11:10:48;18.51;40.17
84340;SHT30;74521;45.618;5.212;2023-12-07T11:13:22;18.45;40.11
84340;SHT30;74521;45.618;5.212;2023-12-07T11:15:49;18.44;39.83
84340;SHT30;74521;45.618;5.212;2023-12-07T11:18:16;18.40;39.73
84340;SHT30;74521;45.618;5.212;2023-12-07T11:20:45;18.38;39.63
84340;SHT30;74521;45.618;5.212;2023-12-07T11:23:15;18.35;39.57
84340;SHT30;74521;45.618;5.212;2023-12-07T11:25:45;18.34;39.74
84340;SHT30;74521;45.618;5.212;2023-12-07T11:28:13;18.34;39.75
84340;SHT30;74521;45.618;5.212;2023-12-07T11:30:44;18.33;40.72
84340;SHT30;74521;45.618;5.212;2023-12-07T11:33:11;18.33;41.43
84340;SHT30;74521;45.618;5.212;2023-12-07T11:36:05;18.38;40.23
84340;SHT30;74521;45.618;5.212;2023-12-07T11:38:32;18.35;40.90
84340;SHT30;74521;45.618;5.212;2023-12-07T11:40:59;18.37;41.61
84340;SHT30;74521;45.618;5.212;2023-12-07T11:43:42;18.35;41.64
84340;SHT30;74521;45.618;5.212;2023-12-07T11:46:13;18.40;41.72
84340;SHT30;74521;45.618;5.212;2023-12-07T11:48:46;18.41;41.86
84340;SHT30;74521;45.618;5.212;2023-12-07T11:51:14;18.44;42.08
84340;SHT30;74521;45.618;5.212;2023-12-07T11:53:41;18.47;42.19
84340;SHT30;74521;45.618;5.212;2023-12-07T11:56:09;18.54;42.11
84340;SHT30;74521;45.618;5.212;2023-12-07T11:58:37;18.55;42.19
84340;SHT30;74521;45.618;5.212;2023-12-07T12:01:04;18.58;42.18
84340;SHT30;74521;45.618;5.212;2023-12-07T12:03:33;18.61;42.35
84340;SHT30;74521;45.618;5.212;2023-12-07T12:06:04;18.69;42.52
84340;SHT30;74521;45.618;5.212;2023-12-07T12:08:31;18.75;42.55
84340;SHT30;74521;45.618;5.212;2023-12-07T12:10:58;18.77;42.51
84340;SHT30;74521;45.618;5.212;2023-12-07T12:13:28;18.77;42.51
84340;SHT30;74521;45.618;5.212;2023-12-07T12:15:55;18.85;42.58
84340;SHT30;74521;45.618;5.212;2023-12-07T12:18:22;18.86;42.57
84340;SHT30;74521;45.618;5.212;2023-12-07T12:20:52;18.89;42.60
84340;SHT30;74521;45.618;5.212;2023-12-07T12:23:19;18.93;42.55
84340;SHT30;74521;45.618;5.212;2023-12-07T12:25:46;18.96;42.59
84340;SHT30;74521;45.618;5.212;2023-12-07T12:28:16;19.00;42.61
84340;SHT30;74521;45.618;5.212;2023-12-07T12:30:43;19.03;42.52
84340;SHT30;74521;45.618;5.212;2023-12-07T12:33:10;19.06;42.56
84340;SHT30;74521;45.618;5.212;2023-12-07T12:35:37;19.10;42.67
84340;SHT30;74521;45.618;5.212;2023-12-07T12:38:09;19.14;42.65
84340;SHT30;74521;45.618;5.212;2023-12-07T12:40:36;19.19;42.69
84340;SHT30;74521;45.618;5.212;2023-12-07T12:43:03;19.24;42.65
84340;SHT30;74521;45.618;5.212;2023-12-07T12:45:29;19.26;42.68
84340;SHT30;74521;45.618;5.212;2023-12-07T12:47:57;19.30;42.67
84340;SHT30;74521;45.618;5.212;2023-12-07T12:50:35;19.31;42.69
84340;SHT30;74521;45.618;5.212;2023-12-07T12:53:05;19.35;42.72
84340;SHT30;74521;45.618;5.212;2023-12-07T12:55:33;19.40;42.84
84340;SHT30;74521;45.618;5.212;2023-12-07T12:58:00;19.43;42.82
84340;SHT30;74521;45.618;5.212;2023-12-07T13:00:29;19.46;42.91
84340;SHT30;74521;45.618;5.212;2023-12-07T13:02:56;19.47;42.89
84340;SHT30;74521;45.618;5.212;2023-12-07T13:05:22;19.48;42.88
84340;SHT30;74521;45.618;5.212;2023-12-07T13:07:49;19.53;42.93
84340;SHT30;74521;45.618;5.212;2023-12-07T13:10:17;19.54;42.92
84340;SHT30;74521;45.618;5.212;2023-12-07T13:12:44;19.57;42.97
84340;SHT30;74521;45.618;5.212;2023-12-07T13:15:11;19.62;42.97
84340;SHT30;74521;45.618;5.212;2023-12-07T13:17:39;19.62;43.03
84340;SHT30;74521;45.618;5.212;2023-12-07T13:20:06;19.68;43.04
84340;SHT30;74521;45.618;5.212;2023-12-07T13:22:35;19.68;43.01
84340;SHT30;74521;45.618;5.212;2023-12-07T13:25:02;19.71;43.07
84340;SHT30;74521;45.618;5.212;2023-12-07T13:27:32;19.74;43.04
84340;SHT30;74521;45.618;5.212;2023-12-07T13:29:59;19.72;43.07
84340;SHT30;74521;45.618;5.212;2023-12-07T13:32:25;19.74;43.00
84340;SHT30;74521;45.618;5.212;2023-12-07T13:34:52;19.71;42.95
84340;SHT30;74521;45.618;5.212;2023-12-07T13:37:19;19.75;42.94
84340;SHT30;74521;45.618;5.212;2023-12-07T13:39:46;19.75;42.90
84340;SHT30;74521;45.618;5.212;2023-12-07T13:42:18;19.75;43.03
84340;SHT30;74521;45.618;5.212;2023-12-07T13:44:46;19.78;43.08
84340;SHT30;74521;45.618;5.212;2023-12-07T13:47:15;19.78;43.06
84340;SHT30;74521;45.618;5.212;2023-12-07T13:49:43;19.81;43.07
84340;SHT30;74521;45.618;5.212;2023-12-07T13:52:10;19.82;43.08
84340;SHT30;74521;45.618;5.212;2023-12-07T13:54:36;19.85;43.10
84340;SHT30;74521;45.618;5.212;2023-12-07T13:57:05;19.86;43.10
84340;SHT30;74521;45.618;5.212;2023-12-07T13:59:32;19.89;43.09
84340;SHT30;74521;45.618;5.212;2023-12-07T14:02:00;19.88;43.05
84340;SHT30;74521;45.618;5.212;2023-12-07T14:04:27;19.90;43.10
84340;SHT30;74521;45.618;5.212;2023-12-07T14:06:54;19.89;43.13
84340;SHT30;74521;45.618;5.212;2023-12-07T14:09:21;19.90;43.10
84340;SHT30;74521;45.618;5.212;2023-12-07T14:11:48;19.90;43.13
84340;SHT30;74521;45.618;5.212;2023-12-07T14:14:14;19.89;43.14
84340;SHT30;74521;45.618;5.212;2023-12-07T14:16:42;19.89;43.18
84340;SHT30;74521;45.618;5.212;2023-12-07T14:19:10;19.92;43.24
84340;SHT30;74521;45.618;5.212;2023-12-07T14:21:36;19.95;43.24
84340;SHT30;74521;45.618;5.212;2023-12-07T14:24:03;19.98;43.20
84340;SHT30;74521;45.618;5.212;2023-12-07T14:26:30;20.00;43.25
84340;SHT30;74521;45.618;5.212;2023-12-07T14:28:57;20.00;43.26
84340;SHT30;74521;45.618;5.212;2023-12-07T14:31:24;20.00;43.19
84340;SHT30;74521;45.618;5.212;2023-12-07T14:33:51;20.05;43.25
84340;SHT30;74521;45.618;5.212;2023-12-07T14:36:20;20.02;43.24
84340;SHT30;74521;45.618;5.212;2023-12-07T14:38:49;20.04;43.19
84340;SHT30;74521;45.618;5.212;2023-12-07T14:41:16;20.05;43.23
84340;SHT30;74521;45.618;5.212;2023-12-07T14:43:42;20.02;43.26
84340;SHT30;74521;45.618;5.212;2023-12-07T14:46:09;20.05;43.26
84340;SHT30;74521;45.618;5.212;2023-12-07T14:48:37;20.04;43.30
84340;SHT30;74521;45.618;5.212;2023-12-07T14:51:04;20.05;43.28
84340;SHT30;74521;45.618;5.212;2023-12-07T14:53:32;20.05;43.35
84340;SHT30;74521;45.618;5.212;2023-12-07T14:55:59;20.05;43.34
84340;SHT30;74521;45.618;5.212;2023-12-07T14:58:26;20.08;43.43
84340;SHT30;74521;45.618;5.212;2023-12-07T15:00:53;20.13;43.55
84340;SHT30;74521;45.618;5.212;2023-12-07T15:03:20;20.10;43.58
84340;SHT30;74521;45.618;5.212;2023-12-07T15:05:47;20.13;43.55
84340;SHT30;74521;45.618;5.212;2023-12-07T15:08:14;20.15;43.54
84340;SHT30;74521;45.618;5.212;2023-12-07T15:10:42;20.13;43.53
84340;SHT30;74521;45.618;5.212;2023-12-07T15:13:09;20.12;43.57
84340;SHT30;74521;45.618;5.212;2023-12-07T15:15:35;20.12;43.50
84340;SHT30;74521;45.618;5.212;2023-12-07T15:18:02;20.12;43.61
84340;SHT30;74521;45.618;5.212;2023-12-07T15:20:29;20.10;43.62
84340;SHT30;74521;45.618;5.212;2023-12-07T15:22:56;20.12;43.61
84340;SHT30;74521;45.618;5.212;2023-12-07T15:25:22;20.08;43.64
84340;SHT30;74521;45.618;5.212;2023-12-07T15:27:50;20.05;43.60
84340;SHT30;74521;45.618;5.212;2023-12-07T15:30:17;20.05;43.68
84340;SHT30;74521;45.618;5.212;2023-12-07T15:32:44;20.08;43.59